createdAt,value
2022-09-27T00:00:16.008Z,96977.44
2022-09-27T00:02:45.397Z,96981.69
2022-09-27T00:05:14.684Z,96978.41
2022-09-27T00:07:44.793Z,96975.44
2022-09-27T00:10:14.707Z,96966.66
2022-09-27T00:12:44.208Z,96960.22
2022-09-27T00:15:14.849Z,96954.72
2022-09-27T00:17:44.101Z,96958.00
2022-09-27T00:20:13.451Z,96955.19
2022-09-27T00:22:42.561Z,96961.25
2022-09-27T00:25:12.552Z,96961.38
2022-09-27T00:27:41.850Z,96970.94
2022-09-27T00:30:15.032Z,96955.13
2022-09-27T00:32:44.200Z,96941.97
2022-09-27T00:38:20.173Z,96944.31
2022-09-27T00:40:50.048Z,96923.00
2022-09-27T00:43:22.410Z,96922.56
2022-09-27T00:45:58.008Z,96928.97
2022-09-27T00:48:32.715Z,96914.56
2022-09-27T00:51:06.596Z,96908.13
2022-09-27T00:53:41.072Z,96909.84
2022-09-27T00:56:14.850Z,96898.88
2022-09-27T00:58:58.463Z,96908.88
2022-09-27T01:01:30.698Z,96904.16
2022-09-27T01:04:05.053Z,96903.22
2022-09-27T01:06:34.737Z,96907.28
2022-09-27T01:09:04.136Z,96904.78
2022-09-27T01:11:43.827Z,96905.44
2022-09-27T01:14:38.320Z,96906.88
2022-09-27T01:17:32.230Z,96898.88
2022-09-27T01:20:31.361Z,96897.94
2022-09-27T01:23:30.322Z,96891.34
2022-09-27T01:26:15.048Z,96880.66
2022-09-27T01:29:01.915Z,96880.66
2022-09-27T01:31:38.257Z,96882.25
2022-09-27T01:34:18.156Z,96868.78
2022-09-27T01:36:58.932Z,96859.41
2022-09-27T01:39:41.346Z,96855.34
2022-09-27T01:42:43.307Z,96855.16
2022-09-27T01:45:21.377Z,96846.09
2022-09-27T01:48:10.970Z,96845.94
2022-09-27T01:51:13.748Z,96832.16
2022-09-27T01:53:53.361Z,96821.69
2022-09-27T01:56:45.226Z,96824.03
2022-09-27T01:59:29.840Z,96828.09
2022-09-27T02:02:28.544Z,96820.91
2022-09-27T02:05:21.534Z,96808.81
2022-09-27T02:08:00.187Z,96801.75
2022-09-27T02:10:35.124Z,96804.13
2022-09-27T02:13:23.795Z,96799.25
2022-09-27T02:16:12.935Z,96800.19
2022-09-27T02:18:57.077Z,96794.25
2022-09-27T02:21:38.366Z,96797.38
2022-09-27T02:24:14.080Z,96804.59
2022-09-27T02:26:51.345Z,96805.69
2022-09-27T02:29:27.299Z,96804.75
2022-09-27T02:31:57.544Z,96810.41
2022-09-27T02:34:30.610Z,96812.75
2022-09-27T02:37:02.093Z,96815.25
2022-09-27T02:39:31.527Z,96814.31
2022-09-27T02:42:07.246Z,96820.75
2022-09-27T02:44:39.125Z,96819.19
2022-09-27T02:47:39.425Z,96812.59
2022-09-27T02:50:31.167Z,96803.03
2022-09-27T02:53:13.286Z,96805.38
2022-09-27T02:56:01.548Z,96803.34
2022-09-27T02:59:04.957Z,96798.97
2022-09-27T03:02:12.505Z,96796.16
2022-09-27T03:05:11.154Z,96795.81
2022-09-27T03:07:41.135Z,96797.09
2022-09-27T03:10:19.656Z,96794.56
2022-09-27T03:12:49.494Z,96788.47
2022-09-27T03:15:27.174Z,96791.91
2022-09-27T03:18:03.109Z,96785.47
2022-09-27T03:20:58.165Z,96786.13
2022-09-27T03:23:28.787Z,96783.28
2022-09-27T03:25:59.845Z,96775.16
2022-09-27T03:28:29.966Z,96766.69
2022-09-27T03:31:00.227Z,96776.38
2022-09-27T03:33:52.607Z,96779.22
2022-09-27T03:36:22.413Z,96772.16
2022-09-27T03:38:51.698Z,96765.44
2022-09-27T03:41:24.088Z,96759.16
2022-09-27T03:43:56.707Z,96761.81
2022-09-27T03:46:28.595Z,96756.66
2022-09-27T03:49:00.156Z,96739.75
2022-09-27T03:51:29.555Z,96731.91
2022-09-27T03:53:58.915Z,96707.50
2022-09-27T03:56:30.748Z,96699.97
2022-09-27T03:59:00.237Z,96707.16
2022-09-27T04:01:31.546Z,96707.31
2022-09-27T04:04:18.797Z,96697.47
2022-09-27T04:06:49.226Z,96685.25
2022-09-27T04:09:19.608Z,96685.84
2022-09-27T04:12:00.641Z,96669.25
2022-09-27T04:14:30.088Z,96670.34
2022-09-27T04:17:18.988Z,96672.69
2022-09-27T04:20:10.128Z,96672.53
2022-09-27T04:22:44.221Z,96665.66
2022-09-27T04:25:40.988Z,96665.16
2022-09-27T04:28:40.883Z,96667.69
2022-09-27T04:31:10.339Z,96666.44
2022-09-27T04:34:14.973Z,96666.13
2022-09-27T04:36:43.293Z,96670.03
2022-09-27T04:39:17.057Z,96661.09
2022-09-27T04:41:48.831Z,96666.75
2022-09-27T04:44:19.619Z,96661.09
2022-09-27T04:46:52.633Z,96668.31
2022-09-27T04:49:31.286Z,96658.59
2022-09-27T04:52:00.910Z,96662.66
2022-09-27T04:54:30.586Z,96667.38
2022-09-27T04:57:13.151Z,96660.16
2022-09-27T04:59:44.820Z,96657.81
2022-09-27T05:02:15.861Z,96644.81
2022-09-27T05:05:06.868Z,96644.31
2022-09-27T05:07:40.619Z,96649.00
2022-09-27T05:10:15.250Z,96636.63
2022-09-27T05:12:44.699Z,96641.31
2022-09-27T05:15:21.947Z,96637.25
2022-09-27T05:18:30.200Z,96641.16
2022-09-27T05:21:28.501Z,96643.50
2022-09-27T05:23:58.118Z,96629.72
2022-09-27T05:26:27.465Z,96628.78
2022-09-27T05:28:56.862Z,96618.75
2022-09-27T05:31:28.153Z,96617.34
2022-09-27T05:33:57.752Z,96610.91
2022-09-27T05:36:39.542Z,96612.47
2022-09-27T05:39:09.132Z,96613.09
2022-09-27T05:41:38.869Z,96614.63
2022-09-27T05:44:10.595Z,96611.16
2022-09-27T05:46:48.286Z,96608.66
2022-09-27T05:49:17.855Z,96603.00
2022-09-27T05:51:47.558Z,96609.75
2022-09-27T05:54:16.974Z,96607.69
2022-09-27T05:56:46.652Z,96608.97
2022-09-27T05:59:33.145Z,96602.06
2022-09-27T06:02:24.001Z,96605.81
2022-09-27T06:05:11.764Z,96597.03
2022-09-27T06:08:00.904Z,96606.13
2022-09-27T06:10:36.811Z,96599.78
2022-09-27T06:13:12.318Z,96602.59
2022-09-27T06:15:47.332Z,96595.34
2022-09-27T06:18:18.431Z,96598.56
2022-09-27T06:20:50.985Z,96590.28
2022-09-27T06:23:22.537Z,96599.97
2022-09-27T06:25:53.823Z,96597.53
2022-09-27T06:28:26.653Z,96602.84
2022-09-27T06:31:00.638Z,96609.88
2022-09-27T06:33:52.352Z,96613.00
2022-09-27T06:36:21.888Z,96615.81
2022-09-27T06:38:51.218Z,96610.47
2022-09-27T06:41:24.494Z,96617.69
2022-09-27T06:44:18.086Z,96607.97
2022-09-27T06:47:05.937Z,96608.00
2022-09-27T06:49:54.968Z,96612.41
2022-09-27T06:52:31.253Z,96612.41
2022-09-27T06:55:00.576Z,96615.53
2022-09-27T06:57:47.362Z,96609.88
2022-09-27T07:00:27.746Z,96615.34
2022-09-27T07:03:36.532Z,96610.78
2022-09-27T07:06:42.252Z,96609.03
2022-09-27T07:09:21.244Z,96612.44
2022-09-27T07:11:50.491Z,96614.78
2022-09-27T07:14:20.795Z,96616.34
2022-09-27T07:16:51.080Z,96616.34
2022-09-27T07:19:21.425Z,96615.75
2022-09-27T07:21:55.681Z,96615.25
2022-09-27T07:24:26.097Z,96615.56
2022-09-27T07:26:55.690Z,96613.81
2022-09-27T07:29:25.960Z,96617.56
2022-09-27T07:31:56.871Z,96612.91
2022-09-27T07:34:26.455Z,96619.56
2022-09-27T07:37:00.503Z,96620.38
2022-09-27T07:39:31.038Z,96621.38
2022-09-27T07:42:04.221Z,96632.28
2022-09-27T07:44:33.822Z,96633.06
2022-09-27T07:47:32.530Z,96633.06
2022-09-27T07:50:09.698Z,96640.41
2022-09-27T07:52:59.318Z,96645.16
2022-09-27T07:55:37.018Z,96647.38
2022-09-27T07:58:13.984Z,96644.94
2022-09-27T08:00:44.567Z,96651.63
2022-09-27T08:03:17.691Z,96652.66
2022-09-27T08:05:49.861Z,96655.56
2022-09-27T08:08:21.016Z,96656.47
2022-09-27T08:10:52.523Z,96655.13
2022-09-27T08:13:22.641Z,96653.13
2022-09-27T08:15:54.986Z,96649.25
2022-09-27T08:18:26.083Z,96648.50
2022-09-27T08:21:01.403Z,96653.63
2022-09-27T08:23:43.157Z,96646.31
2022-09-27T08:26:32.406Z,96643.72
2022-09-27T08:29:14.226Z,96650.34
2022-09-27T08:31:53.992Z,96647.50
2022-09-27T08:34:24.361Z,96652.88
2022-09-27T08:36:54.414Z,96662.94
2022-09-27T08:39:25.486Z,96668.47
2022-09-27T08:42:03.828Z,96661.25
2022-09-27T08:44:44.466Z,96665.09
2022-09-27T08:47:20.765Z,96664.38
2022-09-27T08:49:57.404Z,96666.22
2022-09-27T08:52:32.802Z,96666.53
2022-09-27T08:55:29.089Z,96666.72
2022-09-27T08:58:01.280Z,96674.44
2022-09-27T09:00:32.657Z,96668.56
2022-09-27T09:03:03.955Z,96660.09
2022-09-27T09:05:38.272Z,96666.84
2022-09-27T09:08:32.773Z,96662.09
2022-09-27T09:11:31.207Z,96665.28
2022-09-27T09:14:24.914Z,96667.94
2022-09-27T09:17:06.154Z,96659.28
2022-09-27T09:20:02.481Z,96663.13
2022-09-27T09:22:56.900Z,96663.47
2022-09-27T09:25:36.380Z,96652.72
2022-09-27T09:28:30.521Z,96653.94
2022-09-27T09:31:11.833Z,96657.50
2022-09-27T09:33:47.722Z,96662.94
2022-09-27T09:36:28.720Z,96655.50
2022-09-27T09:39:03.861Z,96654.16
2022-09-27T09:41:40.565Z,96661.31
2022-09-27T09:44:21.215Z,96665.03
2022-09-27T09:46:55.677Z,96661.72
2022-09-27T09:49:31.829Z,96659.03
2022-09-27T09:52:09.071Z,96662.84
2022-09-27T09:54:44.252Z,96663.25
2022-09-27T09:57:18.132Z,96659.81
2022-09-27T09:59:54.587Z,96667.63
2022-09-27T10:02:33.359Z,96662.56
2022-09-27T10:05:17.965Z,96669.09
2022-09-27T10:07:51.728Z,96660.78
2022-09-27T10:10:22.996Z,96664.69
2022-09-27T10:13:04.786Z,96660.59
2022-09-27T10:15:39.783Z,96660.88
2022-09-27T10:18:18.998Z,96663.72
2022-09-27T10:20:53.936Z,96657.63
2022-09-27T10:23:26.673Z,96663.25
2022-09-27T10:26:21.629Z,96664.59
2022-09-27T10:28:52.376Z,96666.16
2022-09-27T10:31:38.885Z,96673.72
2022-09-27T10:34:31.880Z,96678.19
2022-09-27T10:37:19.053Z,96682.97
2022-09-27T10:39:59.870Z,96683.91
2022-09-27T10:42:38.707Z,96690.41
2022-09-27T10:45:29.262Z,96698.34
2022-09-27T10:48:23.691Z,96697.03
2022-09-27T10:51:01.623Z,96711.25
2022-09-27T10:53:52.175Z,96721.81
2022-09-27T10:56:31.979Z,96735.47
2022-09-27T10:59:02.977Z,96741.41
2022-09-27T11:01:45.470Z,96734.56
2022-09-27T11:05:11.239Z,96749.06
2022-09-27T11:07:52.788Z,96735.41
2022-09-27T11:10:28.820Z,96728.88
2022-09-27T11:13:13.209Z,96718.50
2022-09-27T11:16:09.953Z,96713.03
2022-09-27T11:18:50.556Z,96710.81
2022-09-27T11:21:31.927Z,96711.06
2022-09-27T11:24:22.903Z,96704.81
2022-09-27T11:27:05.791Z,96699.44
2022-09-27T11:29:53.294Z,96681.94
2022-09-27T11:33:11.141Z,96704.47
2022-09-27T11:36:00.226Z,96712.41
2022-09-27T11:38:52.681Z,96715.59
2022-09-27T11:41:48.327Z,96693.66
2022-09-27T11:44:48.379Z,96706.34
2022-09-27T11:47:34.909Z,96681.31
2022-09-27T11:50:47.952Z,96677.94
2022-09-27T11:53:34.756Z,96687.41
2022-09-27T11:56:21.425Z,96683.22
2022-09-27T11:59:09.835Z,96683.03
2022-09-27T12:01:51.420Z,96680.34
2022-09-27T12:04:47.536Z,96674.19
2022-09-27T12:07:25.208Z,96663.69
2022-09-27T12:10:00.972Z,96662.94
2022-09-27T12:12:36.608Z,96650.06
2022-09-27T12:15:14.375Z,96632.28
2022-09-27T12:17:49.095Z,96637.94
2022-09-27T12:20:24.606Z,96636.50
2022-09-27T12:23:00.677Z,96639.38
2022-09-27T12:25:50.879Z,96647.69
2022-09-27T12:28:37.072Z,96650.81
2022-09-27T12:34:19.873Z,96651.28
2022-09-27T12:37:00.975Z,96646.88
2022-09-27T12:39:43.094Z,96650.00
2022-09-27T12:42:27.104Z,96661.50
2022-09-27T12:45:03.497Z,96678.88
2022-09-27T12:47:57.823Z,96701.72
2022-09-27T12:50:36.931Z,96694.00
2022-09-27T12:53:23.391Z,96697.41
2022-09-27T12:56:36.530Z,96710.00
2022-09-27T12:59:29.456Z,96717.72
2022-09-27T13:03:03.908Z,96709.44
2022-09-27T13:06:14.233Z,96694.97
2022-09-27T13:09:37.924Z,96692.72
2022-09-27T13:12:12.188Z,96718.88
2022-09-27T13:15:00.101Z,96737.94
2022-09-27T13:17:56.223Z,96720.56
2022-09-27T13:20:49.408Z,96708.38
2022-09-27T13:23:53.164Z,96720.47
2022-09-27T13:26:53.070Z,96721.66
2022-09-27T13:29:34.377Z,96715.03
2022-09-27T13:32:22.503Z,96709.66
2022-09-27T13:35:21.599Z,96706.00
2022-09-27T13:38:23.961Z,96703.91
2022-09-27T13:40:56.946Z,96708.91
2022-09-27T13:43:50.700Z,96714.31
2022-09-27T13:46:52.977Z,96721.34
2022-09-27T13:49:31.603Z,96723.25
2022-09-27T13:52:26.414Z,96723.56
2022-09-27T13:55:45.877Z,96720.88
2022-09-27T13:58:48.179Z,96714.56
2022-09-27T14:01:55.657Z,96715.03
2022-09-27T14:04:37.245Z,96713.25
2022-09-27T14:07:06.985Z,96714.94
2022-09-27T14:09:42.589Z,96725.31
2022-09-27T14:12:35.918Z,96723.72
2022-09-27T14:15:11.587Z,96728.13
2022-09-27T14:17:45.968Z,96738.19
2022-09-27T14:20:38.913Z,96746.06
2022-09-27T14:23:19.860Z,96749.28
2022-09-27T14:25:55.388Z,96754.50
2022-09-27T14:28:28.646Z,96753.09
2022-09-27T14:31:14.902Z,96747.63
2022-09-27T14:34:10.223Z,96742.34
2022-09-27T14:37:04.026Z,96744.41
2022-09-27T14:39:39.642Z,96737.50
2022-09-27T14:42:28.756Z,96745.03
2022-09-27T14:45:04.633Z,96741.63
2022-09-27T14:47:34.360Z,96742.00
2022-09-27T14:50:19.031Z,96738.41
2022-09-27T14:52:49.922Z,96742.06
2022-09-27T14:55:23.139Z,96764.66
2022-09-27T14:57:55.919Z,96769.47
2022-09-27T15:00:29.269Z,96772.47
2022-09-27T15:03:00.257Z,96774.41
2022-09-27T15:05:32.224Z,96774.69
2022-09-27T15:08:05.983Z,96785.09
2022-09-27T15:13:42.353Z,96787.31
2022-09-27T15:16:20.099Z,96802.69
2022-09-27T15:18:51.389Z,96803.59
2022-09-27T15:21:31.074Z,96816.94
2022-09-27T15:24:03.772Z,96813.66
2022-09-27T15:26:39.406Z,96816.31
2022-09-27T15:29:20.398Z,96819.16
2022-09-27T15:32:00.940Z,96828.41
2022-09-27T15:34:30.683Z,96819.59
2022-09-27T15:37:03.533Z,96829.31
2022-09-27T15:39:35.358Z,96818.03
2022-09-27T15:42:13.581Z,96828.84
2022-09-27T15:44:49.661Z,96831.53
2022-09-27T15:47:50.804Z,96828.09
2022-09-27T15:50:41.174Z,96825.56
2022-09-27T15:53:11.443Z,96829.97
2022-09-27T15:55:45.678Z,96831.84
2022-09-27T15:58:20.267Z,96832.28
2022-09-27T16:00:56.237Z,96828.34
2022-09-27T16:03:27.835Z,96830.22
2022-09-27T16:06:05.233Z,96836.50
2022-09-27T16:08:36.519Z,96824.16
2022-09-27T16:11:05.839Z,96831.53
2022-09-27T16:13:35.981Z,96834.06
2022-09-27T16:16:07.504Z,96831.22
2022-09-27T16:18:36.709Z,96832.81
2022-09-27T16:21:06.538Z,96834.06
2022-09-27T16:23:36.644Z,96835.16
2022-09-27T16:26:06.591Z,96835.47
2022-09-27T16:28:36.826Z,96834.09
2022-09-27T16:31:10.239Z,96833.44
2022-09-27T16:33:40.523Z,96836.25
2022-09-27T16:36:14.628Z,96835.16
2022-09-27T16:38:44.463Z,96840.63
2022-09-27T16:41:13.606Z,96848.78
2022-09-27T16:43:42.873Z,96849.22
2022-09-27T16:46:16.009Z,96844.84
2022-09-27T16:48:45.492Z,96842.63
2022-09-27T16:51:36.129Z,96841.25
2022-09-27T16:54:09.644Z,96838.06
2022-09-27T16:56:38.865Z,96843.72
2022-09-27T16:59:07.986Z,96852.97
2022-09-27T17:01:40.741Z,96852.47
2022-09-27T17:04:11.278Z,96860.94
2022-09-27T17:06:40.445Z,96868.63
2022-09-27T17:09:12.086Z,96860.75
2022-09-27T17:11:42.489Z,96865.13
2022-09-27T17:14:14.448Z,96878.13
2022-09-27T17:16:47.528Z,96880.44
2022-09-27T17:19:18.558Z,96895.91
2022-09-27T17:21:49.160Z,96894.66
2022-09-27T17:24:18.742Z,96897.81
2022-09-27T17:26:48.698Z,96893.41
2022-09-27T17:29:18.342Z,96904.03
2022-09-27T17:31:49.167Z,96906.97
2022-09-27T17:34:19.018Z,96898.22
2022-09-27T17:36:51.764Z,96899.78
2022-09-27T17:39:22.874Z,96906.19
2022-09-27T17:41:52.653Z,96901.03
2022-09-27T17:44:23.802Z,96903.06
2022-09-27T17:47:15.573Z,96908.41
2022-09-27T17:50:02.110Z,96909.53
2022-09-27T17:52:32.829Z,96915.91
2022-09-27T17:55:02.050Z,96924.81
2022-09-27T17:57:31.889Z,96918.06
2022-09-27T18:00:01.301Z,96918.31
2022-09-27T18:02:31.911Z,96917.09
2022-09-27T18:05:02.531Z,96925.34
2022-09-27T18:07:32.421Z,96923.94
2022-09-27T18:10:04.507Z,96924.97
2022-09-27T18:12:34.895Z,96925.09
2022-09-27T18:15:04.146Z,96927.91
2022-09-27T18:17:40.556Z,96939.50
2022-09-27T18:20:13.845Z,96946.13
2022-09-27T18:22:43.267Z,96935.25
2022-09-27T18:25:16.545Z,96944.81
2022-09-27T18:27:50.141Z,96946.97
2022-09-27T18:30:19.992Z,96945.41
2022-09-27T18:32:53.805Z,96946.97
2022-09-27T18:35:24.793Z,96946.97
2022-09-27T18:37:57.459Z,96951.16
2022-09-27T18:40:54.686Z,96948.78
2022-09-27T18:43:26.029Z,96943.97
2022-09-27T18:46:07.754Z,96937.88
2022-09-27T18:48:52.611Z,96932.25
2022-09-27T18:51:27.026Z,96932.56
2022-09-27T18:53:57.993Z,96922.22
2022-09-27T18:56:28.548Z,96927.53
2022-09-27T18:58:58.821Z,96931.59
2022-09-27T19:01:31.407Z,96950.00
2022-09-27T19:04:03.032Z,96950.25
2022-09-27T19:06:32.452Z,96946.44
2022-09-27T19:09:03.791Z,96956.78
2022-09-27T19:11:36.613Z,96966.09
2022-09-27T19:14:05.980Z,96989.63
2022-09-27T19:16:37.267Z,96994.97
2022-09-27T19:19:11.430Z,96992.81
2022-09-27T19:21:41.918Z,97002.66
2022-09-27T19:24:11.910Z,96997.38
2022-09-27T19:26:41.445Z,96995.78
2022-09-27T19:29:10.986Z,96979.25
2022-09-27T19:31:41.212Z,96981.16
2022-09-27T19:34:13.414Z,96982.56
2022-09-27T19:36:42.856Z,96981.78
2022-09-27T19:39:12.174Z,96982.91
2022-09-27T19:41:41.599Z,96992.47
2022-09-27T19:44:11.052Z,96982.19
2022-09-27T19:46:40.572Z,96989.75
2022-09-27T19:49:09.822Z,96991.63
2022-09-27T19:51:40.483Z,96990.06
2022-09-27T19:54:12.930Z,96989.41
2022-09-27T19:56:43.250Z,96985.03
2022-09-27T19:59:15.255Z,96983.09
2022-09-27T20:01:44.560Z,96976.25
2022-09-27T20:04:16.666Z,96978.84
2022-09-27T20:06:48.716Z,96982.59
2022-09-27T20:09:17.933Z,96977.47
2022-09-27T20:11:49.890Z,96968.72
2022-09-27T20:14:19.728Z,96972.50
2022-09-27T20:16:50.945Z,96963.16
2022-09-27T20:19:22.478Z,96970.94
2022-09-27T20:21:54.805Z,96966.47
2022-09-27T20:24:25.158Z,96967.38
2022-09-27T20:26:54.675Z,96968.03
2022-09-27T20:29:23.783Z,96971.13
2022-09-27T20:32:15.878Z,96968.44
2022-09-27T20:34:43.215Z,96971.47
2022-09-27T20:37:14.676Z,96965.84
2022-09-27T20:39:43.814Z,96981.38
2022-09-27T20:42:12.977Z,96966.75
2022-09-27T20:44:42.048Z,96977.56
2022-09-27T20:47:11.123Z,96990.16
2022-09-27T20:49:42.932Z,96997.38
2022-09-27T20:52:13.538Z,96985.66
2022-09-27T20:54:42.642Z,96988.97
2022-09-27T20:57:11.657Z,96988.41
2022-09-27T20:59:40.858Z,96994.88
2022-09-27T21:02:09.995Z,96992.47
2022-09-27T21:04:41.253Z,96988.66
2022-09-27T21:07:10.481Z,96991.13
2022-09-27T21:09:41.144Z,96987.19
2022-09-27T21:12:10.202Z,96987.09
2022-09-27T21:14:39.320Z,96983.94
2022-09-27T21:17:11.662Z,96981.56
2022-09-27T21:19:40.885Z,96986.97
2022-09-27T21:22:11.560Z,96999.78
2022-09-27T21:24:42.080Z,96999.00
2022-09-27T21:27:12.931Z,96998.78
2022-09-27T21:29:44.265Z,97001.09
2022-09-27T21:32:13.429Z,97000.09
2022-09-27T21:34:42.581Z,96990.41
2022-09-27T21:37:11.705Z,96991.06
2022-09-27T21:39:42.339Z,96986.91
2022-09-27T21:42:11.501Z,96994.44
2022-09-27T21:44:40.612Z,96996.81
2022-09-27T21:47:09.652Z,96991.25
2022-09-27T21:49:38.737Z,96992.72
2022-09-27T21:52:07.834Z,96989.38
2022-09-27T21:54:36.962Z,96988.03
2022-09-27T21:57:07.597Z,96992.75
2022-09-27T21:59:36.658Z,96991.97
2022-09-27T22:02:05.839Z,96994.13
2022-09-27T22:04:34.960Z,96987.94
2022-09-27T22:07:04.177Z,96991.19
2022-09-27T22:09:33.374Z,96990.03
2022-09-27T22:12:03.348Z,96991.63
2022-09-27T22:14:36.372Z,96994.97
2022-09-27T22:17:05.673Z,96993.53
2022-09-27T22:19:37.474Z,96995.91
2022-09-27T22:22:06.580Z,97012.31
2022-09-27T22:24:36.070Z,97014.78
2022-09-27T22:27:05.391Z,97010.72
2022-09-27T22:29:36.189Z,97016.22
2022-09-27T22:32:05.313Z,97006.66
2022-09-27T22:34:45.853Z,96993.63
2022-09-27T22:37:15.038Z,96994.06
2022-09-27T22:39:44.064Z,96996.13
2022-09-27T22:42:13.255Z,96994.09
2022-09-27T22:44:43.738Z,96994.41
2022-09-27T22:47:13.107Z,96991.81
2022-09-27T22:49:42.210Z,96997.31
2022-09-27T22:52:13.442Z,97005.63
2022-09-27T22:54:42.508Z,97008.00
2022-09-27T22:57:11.651Z,97006.41
2022-09-27T22:59:40.841Z,96996.97
2022-09-27T23:02:11.300Z,97010.84
2022-09-27T23:04:40.288Z,97004.91
2022-09-27T23:07:10.170Z,97004.44
2022-09-27T23:09:39.381Z,97013.28
2022-09-27T23:12:08.546Z,97011.09
2022-09-27T23:14:42.559Z,97020.66
2022-09-27T23:17:13.988Z,97017.84
2022-09-27T23:19:43.131Z,97018.06
2022-09-27T23:22:12.227Z,97027.88
2022-09-27T23:24:41.327Z,97026.50
2022-09-27T23:27:27.856Z,97025.81
2022-09-27T23:29:56.909Z,97022.78
2022-09-27T23:32:31.554Z,97020.13
2022-09-27T23:35:00.990Z,97016.16
2022-09-27T23:37:30.339Z,97016.69
2022-09-27T23:39:59.491Z,97019.50
2022-09-27T23:42:28.577Z,97009.16
2022-09-27T23:44:57.733Z,97013.34
2022-09-27T23:47:28.296Z,97021.97
2022-09-27T23:49:59.481Z,97024.22
2022-09-27T23:52:28.548Z,97021.25
2022-09-27T23:54:57.648Z,97030.00
2022-09-27T23:57:26.749Z,97034.22
2022-09-27T23:59:55.810Z,97031.34
